sensor_id;sensor_type;location;lat;lon;timestamp;temperature;humidity
72883;DHT22;61017;37.812;-122.286;2023-10-13T00:00:40;20.40;66.90
72883;DHT22;61017;37.812;-122.286;2023-10-13T00:02:12;20.40;66.90
72883;DHT22;61017;37.812;-122.286;2023-10-13T00:03:44;20.40;67.00
72883;DHT22;61017;37.812;-122.286;2023-10-13T00:05:15;20.40;66.90
72883;DHT22;61017;37.812;-122.286;2023-10-13T00:06:47;20.40;66.90
72883;DHT22;61017;37.812;-122.286;2023-10-13T00:08:18;20.40;66.40
72883;DHT22;61017;37.812;-122.286;2023-10-13T00:09:50;20.40;66.60
72883;DHT22;61017;37.812;-122.286;2023-10-13T00:11:21;20.40;66.80
72883;DHT22;61017;37.812;-122.286;2023-10-13T00:12:53;20.40;66.80
72883;DHT22;61017;37.812;-122.286;2023-10-13T00:14:25;20.40;66.70
72883;DHT22;61017;37.812;-122.286;2023-10-13T00:15:56;20.40;66.50
72883;DHT22;61017;37.812;-122.286;2023-10-13T00:17:28;20.40;66.50
72883;DHT22;61017;37.812;-122.286;2023-10-13T00:19:00;20.40;66.50
72883;DHT22;61017;37.812;-122.286;2023-10-13T00:20:31;20.40;66.60
72883;DHT22;61017;37.812;-122.286;2023-10-13T00:22:09;20.40;66.40
72883;DHT22;61017;37.812;-122.286;2023-10-13T00:23:43;20.40;66.50
72883;DHT22;61017;37.812;-122.286;2023-10-13T00:25:15;20.40;66.40
72883;DHT22;61017;37.812;-122.286;2023-10-13T00:26:49;20.40;66.50
72883;DHT22;61017;37.812;-122.286;2023-10-13T00:28:21;20.40;66.50
72883;DHT22;61017;37.812;-122.286;2023-10-13T00:29:52;20.40;66.50
72883;DHT22;61017;37.812;-122.286;2023-10-13T00:31:25;20.40;66.60
72883;DHT22;61017;37.812;-122.286;2023-10-13T00:32:57;20.40;66.60
72883;DHT22;61017;37.812;-122.286;2023-10-13T00:34:29;20.40;66.50
72883;DHT22;61017;37.812;-122.286;2023-10-13T00:36:00;20.40;66.60
72883;DHT22;61017;37.812;-122.286;2023-10-13T00:37:32;20.40;66.60
72883;DHT22;61017;37.812;-122.286;2023-10-13T00:39:03;20.40;66.70
72883;DHT22;61017;37.812;-122.286;2023-10-13T00:40:35;20.40;66.80
72883;DHT22;61017;37.812;-122.286;2023-10-13T00:42:07;20.40;66.70
72883;DHT22;61017;37.812;-122.286;2023-10-13T00:43:45;20.50;66.90
72883;DHT22;61017;37.812;-122.286;2023-10-13T00:45:16;20.40;66.80
72883;DHT22;61017;37.812;-122.286;2023-10-13T00:46:48;20.40;66.70
72883;DHT22;61017;37.812;-122.286;2023-10-13T00:48:29;20.40;66.80
72883;DHT22;61017;37.812;-122.286;2023-10-13T00:50:02;20.40;66.70
72883;DHT22;61017;37.812;-122.286;2023-10-13T00:51:34;20.40;66.80
72883;DHT22;61017;37.812;-122.286;2023-10-13T00:53:07;20.40;66.90
72883;DHT22;61017;37.812;-122.286;2023-10-13T00:54:39;20.40;66.90
72883;DHT22;61017;37.812;-122.286;2023-10-13T00:56:11;20.40;66.90
72883;DHT22;61017;37.812;-122.286;2023-10-13T00:57:43;20.40;66.80
72883;DHT22;61017;37.812;-122.286;2023-10-13T00:59:17;20.40;66.90
72883;DHT22;61017;37.812;-122.286;2023-10-13T01:00:50;20.40;66.80
72883;DHT22;61017;37.812;-122.286;2023-10-13T01:02:21;20.40;66.80
72883;DHT22;61017;37.812;-122.286;2023-10-13T01:03:53;20.50;66.70
72883;DHT22;61017;37.812;-122.286;2023-10-13T01:05:25;20.50;66.70
72883;DHT22;61017;37.812;-122.286;2023-10-13T01:06:57;20.50;66.60
72883;DHT22;61017;37.812;-122.286;2023-10-13T01:08:33;20.40;66.50
72883;DHT22;61017;37.812;-122.286;2023-10-13T01:10:09;20.40;66.60
72883;DHT22;61017;37.812;-122.286;2023-10-13T01:11:50;20.40;66.30
72883;DHT22;61017;37.812;-122.286;2023-10-13T01:13:22;20.40;66.20
72883;DHT22;61017;37.812;-122.286;2023-10-13T01:14:54;20.40;66.30
72883;DHT22;61017;37.812;-122.286;2023-10-13T01:16:27;20.40;66.30
72883;DHT22;61017;37.812;-122.286;2023-10-13T01:18:09;20.40;66.30
72883;DHT22;61017;37.812;-122.286;2023-10-13T01:19:41;20.40;66.30
72883;DHT22;61017;37.812;-122.286;2023-10-13T01:21:13;20.40;66.30
72883;DHT22;61017;37.812;-122.286;2023-10-13T01:22:46;20.40;66.30
72883;DHT22;61017;37.812;-122.286;2023-10-13T01:24:21;20.50;66.40
72883;DHT22;61017;37.812;-122.286;2023-10-13T01:25:54;20.40;66.40
72883;DHT22;61017;37.812;-122.286;2023-10-13T01:27:27;20.40;66.30
72883;DHT22;61017;37.812;-122.286;2023-10-13T01:28:59;20.40;66.10
72883;DHT22;61017;37.812;-122.286;2023-10-13T01:30:30;20.40;66.20
72883;DHT22;61017;37.812;-122.286;2023-10-13T01:32:02;20.40;66.20
72883;DHT22;61017;37.812;-122.286;2023-10-13T01:33:35;20.40;66.20
72883;DHT22;61017;37.812;-122.286;2023-10-13T01:35:08;20.40;66.10
72883;DHT22;61017;37.812;-122.286;2023-10-13T01:36:41;20.40;66.10
72883;DHT22;61017;37.812;-122.286;2023-10-13T01:38:14;20.40;66.20
72883;DHT22;61017;37.812;-122.286;2023-10-13T01:39:45;20.40;66.30
72883;DHT22;61017;37.812;-122.286;2023-10-13T01:41:18;20.40;66.30
72883;DHT22;61017;37.812;-122.286;2023-10-13T01:42:49;20.40;66.40
72883;DHT22;61017;37.812;-122.286;2023-10-13T01:44:25;20.40;66.30
72883;DHT22;61017;37.812;-122.286;2023-10-13T01:45:57;20.40;66.30
72883;DHT22;61017;37.812;-122.286;2023-10-13T01:47:29;20.40;66.30
72883;DHT22;61017;37.812;-122.286;2023-10-13T01:49:02;20.40;66.30
72883;DHT22;61017;37.812;-122.286;2023-10-13T01:50:36;20.40;66.20
72883;DHT22;61017;37.812;-122.286;2023-10-13T01:52:10;20.40;66.30
72883;DHT22;61017;37.812;-122.286;2023-10-13T01:53:41;20.40;66.00
72883;DHT22;61017;37.812;-122.286;2023-10-13T01:55:14;20.40;65.90
72883;DHT22;61017;37.812;-122.286;2023-10-13T01:56:45;20.40;65.90
72883;DHT22;61017;37.812;-122.286;2023-10-13T01:58:17;20.40;65.90
72883;DHT22;61017;37.812;-122.286;2023-10-13T01:59:49;20.40;65.90
72883;DHT22;61017;37.812;-122.286;2023-10-13T02:01:21;20.40;65.90
72883;DHT22;61017;37.812;-122.286;2023-10-13T02:02:53;20.40;66.60
72883;DHT22;61017;37.812;-122.286;2023-10-13T02:04:24;20.40;66.00
72883;DHT22;61017;37.812;-122.286;2023-10-13T02:05:56;20.40;65.80
72883;DHT22;61017;37.812;-122.286;2023-10-13T02:07:28;20.50;64.30
72883;DHT22;61017;37.812;-122.286;2023-10-13T02:09:04;20.50;62.40
72883;DHT22;61017;37.812;-122.286;2023-10-13T02:10:37;20.70;60.90
72883;DHT22;61017;37.812;-122.286;2023-10-13T02:12:10;20.90;59.90
72883;DHT22;61017;37.812;-122.286;2023-10-13T02:13:41;21.00;59.60
72883;DHT22;61017;37.812;-122.286;2023-10-13T02:15:14;21.20;58.30
72883;DHT22;61017;37.812;-122.286;2023-10-13T02:16:46;21.30;57.60
72883;DHT22;61017;37.812;-122.286;2023-10-13T02:18:19;21.40;56.90
72883;DHT22;61017;37.812;-122.286;2023-10-13T02:19:51;21.50;56.30
72883;DHT22;61017;37.812;-122.286;2023-10-13T02:21:23;21.60;55.80
72883;DHT22;61017;37.812;-122.286;2023-10-13T02:22:54;21.70;55.30
72883;DHT22;61017;37.812;-122.286;2023-10-13T02:24:26;21.80;55.00
72883;DHT22;61017;37.812;-122.286;2023-10-13T02:26:00;21.90;54.60
72883;DHT22;61017;37.812;-122.286;2023-10-13T02:27:35;22.00;54.40
72883;DHT22;61017;37.812;-122.286;2023-10-13T02:29:06;22.00;54.00
72883;DHT22;61017;37.812;-122.286;2023-10-13T02:30:42;22.00;53.80
72883;DHT22;61017;37.812;-122.286;2023-10-13T02:32:14;22.10;53.70
72883;DHT22;61017;37.812;-122.286;2023-10-13T02:33:46;22.10;53.50
72883;DHT22;61017;37.812;-122.286;2023-10-13T02:35:17;22.10;53.50
72883;DHT22;61017;37.812;-122.286;2023-10-13T02:36:49;22.10;53.50
72883;DHT22;61017;37.812;-122.286;2023-10-13T02:38:21;22.10;53.70
72883;DHT22;61017;37.812;-122.286;2023-10-13T02:39:53;22.20;54.00
72883;DHT22;61017;37.812;-122.286;2023-10-13T02:41:25;22.20;54.20
72883;DHT22;61017;37.812;-122.286;2023-10-13T02:42:56;22.20;54.40
72883;DHT22;61017;37.812;-122.286;2023-10-13T02:44:28;22.20;54.70
72883;DHT22;61017;37.812;-122.286;2023-10-13T02:45:59;22.20;55.10
72883;DHT22;61017;37.812;-122.286;2023-10-13T02:47:31;22.20;55.30
72883;DHT22;61017;37.812;-122.286;2023-10-13T02:49:03;22.20;55.60
72883;DHT22;61017;37.812;-122.286;2023-10-13T02:50:35;22.20;55.90
72883;DHT22;61017;37.812;-122.286;2023-10-13T02:52:07;22.10;56.10
72883;DHT22;61017;37.812;-122.286;2023-10-13T02:53:38;22.10;56.30
72883;DHT22;61017;37.812;-122.286;2023-10-13T02:55:10;22.10;56.70
72883;DHT22;61017;37.812;-122.286;2023-10-13T02:56:41;22.00;58.20
72883;DHT22;61017;37.812;-122.286;2023-10-13T02:58:13;21.80;57.60
72883;DHT22;61017;37.812;-122.286;2023-10-13T02:59:45;21.80;56.60
72883;DHT22;61017;37.812;-122.286;2023-10-13T03:01:17;21.90;55.90
72883;DHT22;61017;37.812;-122.286;2023-10-13T03:02:48;22.00;55.30
72883;DHT22;61017;37.812;-122.286;2023-10-13T03:04:20;22.10;54.70
72883;DHT22;61017;37.812;-122.286;2023-10-13T03:05:51;22.10;54.20
72883;DHT22;61017;37.812;-122.286;2023-10-13T03:07:23;22.20;53.80
72883;DHT22;61017;37.812;-122.286;2023-10-13T03:08:54;22.30;53.40
72883;DHT22;61017;37.812;-122.286;2023-10-13T03:10:26;22.40;53.00
72883;DHT22;61017;37.812;-122.286;2023-10-13T03:11:57;22.40;52.70
72883;DHT22;61017;37.812;-122.286;2023-10-13T03:13:29;22.50;52.60
72883;DHT22;61017;37.812;-122.286;2023-10-13T03:15:01;22.50;52.30
72883;DHT22;61017;37.812;-122.286;2023-10-13T03:16:33;22.50;52.80
72883;DHT22;61017;37.812;-122.286;2023-10-13T03:18:05;22.50;52.90
72883;DHT22;61017;37.812;-122.286;2023-10-13T03:19:36;22.50;52.60
72883;DHT22;61017;37.812;-122.286;2023-10-13T03:21:08;22.50;52.60
72883;DHT22;61017;37.812;-122.286;2023-10-13T03:22:40;22.50;52.50
72883;DHT22;61017;37.812;-122.286;2023-10-13T03:24:11;22.50;52.60
72883;DHT22;61017;37.812;-122.286;2023-10-13T03:25:44;22.50;52.60
72883;DHT22;61017;37.812;-122.286;2023-10-13T03:27:19;22.50;52.80
72883;DHT22;61017;37.812;-122.286;2023-10-13T03:28:51;22.50;53.30
72883;DHT22;61017;37.812;-122.286;2023-10-13T03:30:22;22.50;53.70
72883;DHT22;61017;37.812;-122.286;2023-10-13T03:31:54;22.50;54.00
72883;DHT22;61017;37.812;-122.286;2023-10-13T03:33:25;22.50;54.40
72883;DHT22;61017;37.812;-122.286;2023-10-13T03:34:57;22.50;54.80
72883;DHT22;61017;37.812;-122.286;2023-10-13T03:36:29;22.50;55.30
72883;DHT22;61017;37.812;-122.286;2023-10-13T03:38:00;22.40;55.60
72883;DHT22;61017;37.812;-122.286;2023-10-13T03:39:32;22.40;55.80
72883;DHT22;61017;37.812;-122.286;2023-10-13T03:41:03;22.40;56.20
72883;DHT22;61017;37.812;-122.286;2023-10-13T03:42:35;22.40;56.30
72883;DHT22;61017;37.812;-122.286;2023-10-13T03:44:06;22.40;56.50
72883;DHT22;61017;37.812;-122.286;2023-10-13T03:45:40;22.40;57.10
72883;DHT22;61017;37.812;-122.286;2023-10-13T23:10:32;21.60;62.20
72883;DHT22;61017;37.812;-122.286;2023-10-13T23:12:04;21.60;62.80
72883;DHT22;61017;37.812;-122.286;2023-10-13T23:13:35;21.60;63.00
72883;DHT22;61017;37.812;-122.286;2023-10-13T23:15:07;21.60;63.10
72883;DHT22;61017;37.812;-122.286;2023-10-13T23:16:39;21.60;63.10
72883;DHT22;61017;37.812;-122.286;2023-10-13T23:18:11;21.60;63.10
72883;DHT22;61017;37.812;-122.286;2023-10-13T23:19:42;21.60;63.20
72883;DHT22;61017;37.812;-122.286;2023-10-13T23:21:17;21.60;64.00
72883;DHT22;61017;37.812;-122.286;2023-10-13T23:22:48;21.60;63.60
72883;DHT22;61017;37.812;-122.286;2023-10-13T23:24:20;21.60;63.60
72883;DHT22;61017;37.812;-122.286;2023-10-13T23:25:52;21.60;64.50
72883;DHT22;61017;37.812;-122.286;2023-10-13T23:27:23;21.60;64.90
72883;DHT22;61017;37.812;-122.286;2023-10-13T23:28:55;21.60;65.80
72883;DHT22;61017;37.812;-122.286;2023-10-13T23:30:27;21.60;66.60
72883;DHT22;61017;37.812;-122.286;2023-10-13T23:31:58;21.60;66.00
72883;DHT22;61017;37.812;-122.286;2023-10-13T23:33:33;21.60;65.70
72883;DHT22;61017;37.812;-122.286;2023-10-13T23:35:04;21.60;66.00
72883;DHT22;61017;37.812;-122.286;2023-10-13T23:36:39;21.60;65.80
72883;DHT22;61017;37.812;-122.286;2023-10-13T23:38:11;21.60;64.80
72883;DHT22;61017;37.812;-122.286;2023-10-13T23:39:43;21.60;64.40
72883;DHT22;61017;37.812;-122.286;2023-10-13T23:41:14;21.60;64.20
72883;DHT22;61017;37.812;-122.286;2023-10-13T23:42:46;21.60;64.70
72883;DHT22;61017;37.812;-122.286;2023-10-13T23:44:18;21.60;64.70
72883;DHT22;61017;37.812;-122.286;2023-10-13T23:45:54;21.60;65.20
72883;DHT22;61017;37.812;-122.286;2023-10-13T23:47:26;21.60;65.40
72883;DHT22;61017;37.812;-122.286;2023-10-13T23:48:57;21.60;65.20
72883;DHT22;61017;37.812;-122.286;2023-10-13T23:50:29;21.60;66.70
72883;DHT22;61017;37.812;-122.286;2023-10-13T23:52:00;21.50;65.90
72883;DHT22;61017;37.812;-122.286;2023-10-13T23:53:33;21.50;66.10
72883;DHT22;61017;37.812;-122.286;2023-10-13T23:55:06;21.50;65.70
72883;DHT22;61017;37.812;-122.286;2023-10-13T23:56:38;21.50;65.70
72883;DHT22;61017;37.812;-122.286;2023-10-13T23:58:09;21.50;65.80
72883;DHT22;61017;37.812;-122.286;2023-10-13T23:59:41;21.50;66.00
